DNAA/ABV METAR and TAF weather

Enter ICAO airport designator
Station Type Date Time Source
DNAA METAR 2019/04/18 19:00 UTC NOAA

DNAA 181900Z 18008KT 8000 NSC 34/19 Q1010 NOSIG


Station Type Date Time Source
DNAA Decoded METAR 2019/04/18 19:00 UTC NOAA

Station name not available
Apr 18, 2019 - 03:00 PM EDT / 2019.04.18 1900 UTC
Wind: from the S (180 degrees) at 9 MPH (8 KT):0
Visibility: 4 mile(s):0
Temperature: 93 F (34 C)
Heat index: 95.9 F (35.5 C):1
Dew Point: 66 F (19 C)
Relative Humidity: 41%
Pressure (altimeter): 29.83 in. Hg (1010 hPa)
ob: DNAA 181900Z 18008KT 8000 NSC 34/19 Q1010 NOSIG
cycle: 19

Station Type Date Time Source
DNAA TAF 2019/04/18 18:21 UTC NOAA

TAF DNAA 181530Z 1818/1924 03003KT 9999 FEW013
BECMG 1820/1822 12010KT PROB30
TEMPO 1903/1906 5000 HZ

Example: see airport list